sensor_id;sensor_type;location;lat;lon;timestamp;P1;durP1;ratioP1;P2;durP2;ratioP2
9958;SDS011;5019;48.012;7.812;2023-03-15T00:00:29;2.10;;;2.00;;
9958;SDS011;5019;48.012;7.812;2023-03-15T00:02:55;2.00;;;1.90;;
9958;SDS011;5019;48.012;7.812;2023-03-15T00:05:21;1.40;;;1.40;;
9958;SDS011;5019;48.012;7.812;2023-03-15T00:07:47;1.43;;;1.33;;
9958;SDS011;5019;48.012;7.812;2023-03-15T00:10:13;1.70;;;1.60;;
9958;SDS011;5019;48.012;7.812;2023-03-15T00:12:39;1.63;;;1.63;;
9958;SDS011;5019;48.012;7.812;2023-03-15T00:15:11;2.10;;;2.00;;
9958;SDS011;5019;48.012;7.812;2023-03-15T00:17:38;2.10;;;1.80;;
9958;SDS011;5019;48.012;7.812;2023-03-15T00:20:04;1.10;;;1.10;;
9958;SDS011;5019;48.012;7.812;2023-03-15T00:22:30;1.33;;;1.33;;
9958;SDS011;5019;48.012;7.812;2023-03-15T00:24:56;1.30;;;1.30;;
9958;SDS011;5019;48.012;7.812;2023-03-15T00:27:22;2.10;;;2.00;;
9958;SDS011;5019;48.012;7.812;2023-03-15T00:29:48;1.90;;;1.80;;
9958;SDS011;5019;48.012;7.812;2023-03-15T00:32:14;1.70;;;1.60;;
9958;SDS011;5019;48.012;7.812;2023-03-15T00:34:40;3.37;;;1.70;;
9958;SDS011;5019;48.012;7.812;2023-03-15T00:37:12;1.57;;;1.50;;
9958;SDS011;5019;48.012;7.812;2023-03-15T00:39:40;1.43;;;1.33;;
9958;SDS011;5019;48.012;7.812;2023-03-15T00:42:09;2.77;;;1.90;;
9958;SDS011;5019;48.012;7.812;2023-03-15T00:44:35;1.77;;;1.67;;
9958;SDS011;5019;48.012;7.812;2023-03-15T00:47:01;1.27;;;1.27;;
9958;SDS011;5019;48.012;7.812;2023-03-15T00:49:27;1.53;;;1.43;;
9958;SDS011;5019;48.012;7.812;2023-03-15T00:51:53;3.13;;;1.33;;
9958;SDS011;5019;48.012;7.812;2023-03-15T00:54:20;1.70;;;1.60;;
9958;SDS011;5019;48.012;7.812;2023-03-15T00:56:47;1.37;;;1.30;;
9958;SDS011;5019;48.012;7.812;2023-03-15T00:59:13;2.00;;;1.83;;
9958;SDS011;5019;48.012;7.812;2023-03-15T01:01:40;1.90;;;1.33;;
9958;SDS011;5019;48.012;7.812;2023-03-15T01:04:09;2.30;;;1.33;;
9958;SDS011;5019;48.012;7.812;2023-03-15T01:06:36;1.33;;;1.23;;
9958;SDS011;5019;48.012;7.812;2023-03-15T01:09:02;3.00;;;1.80;;
9958;SDS011;5019;48.012;7.812;2023-03-15T01:11:29;1.37;;;1.37;;
9958;SDS011;5019;48.012;7.812;2023-03-15T01:13:56;1.20;;;1.17;;
9958;SDS011;5019;48.012;7.812;2023-03-15T01:16:23;3.77;;;1.50;;
9958;SDS011;5019;48.012;7.812;2023-03-15T01:18:50;1.33;;;1.33;;
9958;SDS011;5019;48.012;7.812;2023-03-15T01:21:16;1.40;;;1.30;;
9958;SDS011;5019;48.012;7.812;2023-03-15T01:23:42;3.27;;;1.43;;
9958;SDS011;5019;48.012;7.812;2023-03-15T01:26:12;2.00;;;1.80;;
9958;SDS011;5019;48.012;7.812;2023-03-15T01:28:39;1.70;;;1.60;;
9958;SDS011;5019;48.012;7.812;2023-03-15T01:31:05;1.80;;;1.70;;
9958;SDS011;5019;48.012;7.812;2023-03-15T01:33:31;1.30;;;1.30;;
9958;SDS011;5019;48.012;7.812;2023-03-15T01:36:06;1.77;;;1.30;;
9958;SDS011;5019;48.012;7.812;2023-03-15T01:38:32;2.10;;;1.90;;
9958;SDS011;5019;48.012;7.812;2023-03-15T01:40:59;2.13;;;1.67;;
9958;SDS011;5019;48.012;7.812;2023-03-15T01:43:25;3.27;;;1.67;;
9958;SDS011;5019;48.012;7.812;2023-03-15T01:48:34;1.20;;;1.20;;
9958;SDS011;5019;48.012;7.812;2023-03-15T01:51:02;1.47;;;1.37;;
9958;SDS011;5019;48.012;7.812;2023-03-15T01:53:29;1.53;;;1.43;;
9958;SDS011;5019;48.012;7.812;2023-03-15T01:55:56;3.63;;;1.70;;
9958;SDS011;5019;48.012;7.812;2023-03-15T01:58:24;1.47;;;1.37;;
9958;SDS011;5019;48.012;7.812;2023-03-15T02:00:51;1.53;;;1.53;;
9958;SDS011;5019;48.012;7.812;2023-03-15T02:03:19;1.43;;;1.43;;
9958;SDS011;5019;48.012;7.812;2023-03-15T02:05:48;1.30;;;1.30;;
9958;SDS011;5019;48.012;7.812;2023-03-15T02:08:18;1.97;;;1.87;;
9958;SDS011;5019;48.012;7.812;2023-03-15T02:10:50;1.30;;;1.30;;
9958;SDS011;5019;48.012;7.812;2023-03-15T02:13:17;1.57;;;1.57;;
9958;SDS011;5019;48.012;7.812;2023-03-15T02:15:46;1.97;;;1.87;;
9958;SDS011;5019;48.012;7.812;2023-03-15T02:18:13;2.03;;;1.93;;
9958;SDS011;5019;48.012;7.812;2023-03-15T02:23:12;1.70;;;1.60;;
9958;SDS011;5019;48.012;7.812;2023-03-15T02:28:22;2.30;;;1.90;;
9958;SDS011;5019;48.012;7.812;2023-03-15T02:30:48;2.17;;;1.97;;
9958;SDS011;5019;48.012;7.812;2023-03-15T02:33:17;3.33;;;2.27;;
9958;SDS011;5019;48.012;7.812;2023-03-15T02:35:44;2.03;;;1.93;;
9958;SDS011;5019;48.012;7.812;2023-03-15T02:38:10;1.60;;;1.50;;
9958;SDS011;5019;48.012;7.812;2023-03-15T02:40:36;1.50;;;1.50;;
9958;SDS011;5019;48.012;7.812;2023-03-15T02:43:06;2.57;;;2.37;;
9958;SDS011;5019;48.012;7.812;2023-03-15T02:45:33;3.37;;;2.00;;
9958;SDS011;5019;48.012;7.812;2023-03-15T02:48:00;1.97;;;1.87;;
9958;SDS011;5019;48.012;7.812;2023-03-15T02:50:27;1.43;;;1.43;;
9958;SDS011;5019;48.012;7.812;2023-03-15T02:52:53;2.20;;;2.00;;
9958;SDS011;5019;48.012;7.812;2023-03-15T02:55:19;2.20;;;2.10;;
9958;SDS011;5019;48.012;7.812;2023-03-15T02:57:45;2.37;;;2.27;;
9958;SDS011;5019;48.012;7.812;2023-03-15T03:00:12;1.73;;;1.43;;
9958;SDS011;5019;48.012;7.812;2023-03-15T03:02:42;1.87;;;1.77;;
9958;SDS011;5019;48.012;7.812;2023-03-15T03:05:09;1.97;;;1.87;;
9958;SDS011;5019;48.012;7.812;2023-03-15T03:07:35;2.83;;;2.30;;
9958;SDS011;5019;48.012;7.812;2023-03-15T03:10:02;2.27;;;2.13;;
9958;SDS011;5019;48.012;7.812;2023-03-15T03:12:28;4.63;;;2.43;;
9958;SDS011;5019;48.012;7.812;2023-03-15T03:14:54;3.13;;;1.97;;
9958;SDS011;5019;48.012;7.812;2023-03-15T03:17:21;3.90;;;1.83;;
9958;SDS011;5019;48.012;7.812;2023-03-15T03:19:47;3.53;;;2.00;;
9958;SDS011;5019;48.012;7.812;2023-03-15T03:22:13;2.43;;;1.70;;
9958;SDS011;5019;48.012;7.812;2023-03-15T03:24:39;1.63;;;1.53;;
9958;SDS011;5019;48.012;7.812;2023-03-15T03:27:09;2.10;;;1.87;;
9958;SDS011;5019;48.012;7.812;2023-03-15T03:29:35;2.07;;;1.97;;
9958;SDS011;5019;48.012;7.812;2023-03-15T03:32:01;1.93;;;1.50;;
9958;SDS011;5019;48.012;7.812;2023-03-15T03:34:28;1.87;;;1.77;;
9958;SDS011;5019;48.012;7.812;2023-03-15T03:36:55;1.87;;;1.77;;
9958;SDS011;5019;48.012;7.812;2023-03-15T03:39:21;1.70;;;1.60;;
9958;SDS011;5019;48.012;7.812;2023-03-15T03:41:47;2.50;;;1.80;;
9958;SDS011;5019;48.012;7.812;2023-03-15T03:44:17;1.77;;;1.67;;
9958;SDS011;5019;48.012;7.812;2023-03-15T03:46:43;2.00;;;1.90;;
9958;SDS011;5019;48.012;7.812;2023-03-15T03:49:09;2.23;;;2.13;;
9958;SDS011;5019;48.012;7.812;2023-03-15T03:51:35;2.07;;;1.97;;
9958;SDS011;5019;48.012;7.812;2023-03-15T03:54:02;2.10;;;2.00;;
9958;SDS011;5019;48.012;7.812;2023-03-15T03:56:28;3.40;;;3.10;;
9958;SDS011;5019;48.012;7.812;2023-03-15T03:58:54;1.57;;;1.57;;
9958;SDS011;5019;48.012;7.812;2023-03-15T04:01:20;2.00;;;1.90;;
9958;SDS011;5019;48.012;7.812;2023-03-15T04:03:47;2.70;;;1.57;;
9958;SDS011;5019;48.012;7.812;2023-03-15T04:06:13;1.73;;;1.57;;
9958;SDS011;5019;48.012;7.812;2023-03-15T04:08:39;1.90;;;1.80;;
9958;SDS011;5019;48.012;7.812;2023-03-15T04:11:05;1.80;;;1.70;;
9958;SDS011;5019;48.012;7.812;2023-03-15T04:13:31;4.30;;;2.70;;
9958;SDS011;5019;48.012;7.812;2023-03-15T04:15:58;2.10;;;1.90;;
9958;SDS011;5019;48.012;7.812;2023-03-15T04:18:25;1.37;;;1.37;;
9958;SDS011;5019;48.012;7.812;2023-03-15T04:20:51;2.50;;;1.30;;
9958;SDS011;5019;48.012;7.812;2023-03-15T04:23:18;2.70;;;2.60;;
9958;SDS011;5019;48.012;7.812;2023-03-15T04:25:48;1.60;;;1.50;;
9958;SDS011;5019;48.012;7.812;2023-03-15T04:28:14;1.87;;;1.77;;
9958;SDS011;5019;48.012;7.812;2023-03-15T04:30:40;2.50;;;1.90;;
9958;SDS011;5019;48.012;7.812;2023-03-15T04:33:07;2.93;;;2.07;;
9958;SDS011;5019;48.012;7.812;2023-03-15T04:35:34;2.40;;;1.90;;
9958;SDS011;5019;48.012;7.812;2023-03-15T04:38:01;1.93;;;1.83;;
9958;SDS011;5019;48.012;7.812;2023-03-15T04:40:28;1.73;;;1.63;;
9958;SDS011;5019;48.012;7.812;2023-03-15T04:42:54;2.80;;;1.73;;
9958;SDS011;5019;48.012;7.812;2023-03-15T04:45:21;1.60;;;1.60;;
9958;SDS011;5019;48.012;7.812;2023-03-15T04:47:48;2.50;;;2.40;;
9958;SDS011;5019;48.012;7.812;2023-03-15T04:50:14;2.30;;;2.20;;
9958;SDS011;5019;48.012;7.812;2023-03-15T04:52:40;2.63;;;2.53;;
9958;SDS011;5019;48.012;7.812;2023-03-15T04:55:06;3.87;;;3.57;;
9958;SDS011;5019;48.012;7.812;2023-03-15T04:57:33;3.33;;;3.13;;
9958;SDS011;5019;48.012;7.812;2023-03-15T04:59:59;2.50;;;2.40;;
9958;SDS011;5019;48.012;7.812;2023-03-15T05:02:25;3.33;;;3.13;;
9958;SDS011;5019;48.012;7.812;2023-03-15T05:04:50;3.07;;;2.90;;
9958;SDS011;5019;48.012;7.812;2023-03-15T05:07:16;3.27;;;2.60;;
9958;SDS011;5019;48.012;7.812;2023-03-15T05:09:42;2.53;;;2.43;;
9958;SDS011;5019;48.012;7.812;2023-03-15T05:12:10;4.80;;;2.83;;
9958;SDS011;5019;48.012;7.812;2023-03-15T05:14:36;2.03;;;1.93;;
9958;SDS011;5019;48.012;7.812;2023-03-15T05:17:02;8.93;;;4.13;;
9958;SDS011;5019;48.012;7.812;2023-03-15T05:19:28;2.90;;;2.70;;
9958;SDS011;5019;48.012;7.812;2023-03-15T05:21:58;2.20;;;2.07;;
9958;SDS011;5019;48.012;7.812;2023-03-15T05:24:24;2.40;;;1.90;;
9958;SDS011;5019;48.012;7.812;2023-03-15T05:26:50;2.90;;;2.70;;
9958;SDS011;5019;48.012;7.812;2023-03-15T05:29:18;2.70;;;2.30;;
9958;SDS011;5019;48.012;7.812;2023-03-15T05:31:45;2.97;;;2.77;;
9958;SDS011;5019;48.012;7.812;2023-03-15T05:34:11;3.20;;;3.00;;
9958;SDS011;5019;48.012;7.812;2023-03-15T05:36:37;3.27;;;2.97;;
9958;SDS011;5019;48.012;7.812;2023-03-15T05:39:03;3.63;;;2.83;;
9958;SDS011;5019;48.012;7.812;2023-03-15T05:41:29;2.83;;;2.70;;
9958;SDS011;5019;48.012;7.812;2023-03-15T05:43:55;2.73;;;2.53;;
9958;SDS011;5019;48.012;7.812;2023-03-15T05:46:22;2.50;;;2.37;;
9958;SDS011;5019;48.012;7.812;2023-03-15T05:48:48;2.60;;;2.43;;
9958;SDS011;5019;48.012;7.812;2023-03-15T05:51:14;4.37;;;3.60;;
9958;SDS011;5019;48.012;7.812;2023-03-15T05:53:40;4.57;;;4.13;;
9958;SDS011;5019;48.012;7.812;2023-03-15T05:56:07;3.90;;;3.60;;
9958;SDS011;5019;48.012;7.812;2023-03-15T05:58:33;8.03;;;3.07;;
9958;SDS011;5019;48.012;7.812;2023-03-15T06:01:00;2.93;;;2.43;;
9958;SDS011;5019;48.012;7.812;2023-03-15T06:03:26;2.53;;;2.43;;
9958;SDS011;5019;48.012;7.812;2023-03-15T06:05:52;3.10;;;2.83;;
9958;SDS011;5019;48.012;7.812;2023-03-15T06:08:18;4.30;;;3.90;;
9958;SDS011;5019;48.012;7.812;2023-03-15T06:10:44;3.73;;;3.17;;
9958;SDS011;5019;48.012;7.812;2023-03-15T06:13:10;3.67;;;3.47;;
9958;SDS011;5019;48.012;7.812;2023-03-15T06:15:36;2.63;;;2.43;;
9958;SDS011;5019;48.012;7.812;2023-03-15T06:18:02;4.47;;;4.07;;
9958;SDS011;5019;48.012;7.812;2023-03-15T06:20:28;2.63;;;2.47;;
9958;SDS011;5019;48.012;7.812;2023-03-15T06:22:55;2.50;;;2.17;;
9958;SDS011;5019;48.012;7.812;2023-03-15T06:25:21;2.13;;;2.03;;
9958;SDS011;5019;48.012;7.812;2023-03-15T06:27:47;2.83;;;2.30;;
9958;SDS011;5019;48.012;7.812;2023-03-15T06:30:14;2.40;;;2.30;;
9958;SDS011;5019;48.012;7.812;2023-03-15T06:32:40;4.13;;;2.10;;
9958;SDS011;5019;48.012;7.812;2023-03-15T06:35:06;1.80;;;1.70;;
9958;SDS011;5019;48.012;7.812;2023-03-15T06:37:33;2.33;;;2.13;;
9958;SDS011;5019;48.012;7.812;2023-03-15T06:40:00;1.80;;;1.70;;
9958;SDS011;5019;48.012;7.812;2023-03-15T06:42:28;3.13;;;2.37;;
9958;SDS011;5019;48.012;7.812;2023-03-15T06:44:54;2.50;;;2.30;;
9958;SDS011;5019;48.012;7.812;2023-03-15T06:47:20;2.50;;;2.40;;
9958;SDS011;5019;48.012;7.812;2023-03-15T06:49:47;2.00;;;1.90;;
9958;SDS011;5019;48.012;7.812;2023-03-15T06:52:14;3.80;;;2.43;;
9958;SDS011;5019;48.012;7.812;2023-03-15T06:54:40;2.13;;;1.92;;
9958;SDS011;5019;48.012;7.812;2023-03-15T06:57:06;2.30;;;2.17;;
9958;SDS011;5019;48.012;7.812;2023-03-15T06:59:33;2.40;;;2.30;;
9958;SDS011;5019;48.012;7.812;2023-03-15T07:01:59;2.87;;;2.57;;
9958;SDS011;5019;48.012;7.812;2023-03-15T07:04:25;2.53;;;1.90;;
9958;SDS011;5019;48.012;7.812;2023-03-15T07:06:51;3.30;;;1.93;;
9958;SDS011;5019;48.012;7.812;2023-03-15T07:09:17;2.23;;;2.00;;
9958;SDS011;5019;48.012;7.812;2023-03-15T07:11:43;2.83;;;2.60;;
9958;SDS011;5019;48.012;7.812;2023-03-15T07:14:09;2.30;;;2.10;;
9958;SDS011;5019;48.012;7.812;2023-03-15T07:16:35;2.93;;;2.73;;
9958;SDS011;5019;48.012;7.812;2023-03-15T07:19:01;4.37;;;2.17;;
9958;SDS011;5019;48.012;7.812;2023-03-15T07:21:27;2.13;;;2.03;;
9958;SDS011;5019;48.012;7.812;2023-03-15T07:23:53;2.47;;;2.07;;
9958;SDS011;5019;48.012;7.812;2023-03-15T07:26:19;3.63;;;2.53;;
9958;SDS011;5019;48.012;7.812;2023-03-15T07:28:45;1.97;;;1.87;;
9958;SDS011;5019;48.012;7.812;2023-03-15T07:31:12;2.20;;;2.10;;
9958;SDS011;5019;48.012;7.812;2023-03-15T07:33:38;2.00;;;1.80;;
9958;SDS011;5019;48.012;7.812;2023-03-15T07:36:04;2.23;;;2.03;;
9958;SDS011;5019;48.012;7.812;2023-03-15T07:38:30;3.27;;;3.00;;
9958;SDS011;5019;48.012;7.812;2023-03-15T07:40:57;3.20;;;1.80;;
9958;SDS011;5019;48.012;7.812;2023-03-15T07:43:23;5.60;;;2.63;;
9958;SDS011;5019;48.012;7.812;2023-03-15T07:45:49;3.20;;;2.23;;
9958;SDS011;5019;48.012;7.812;2023-03-15T07:48:15;2.43;;;2.10;;
9958;SDS011;5019;48.012;7.812;2023-03-15T07:50:41;2.27;;;2.07;;
9958;SDS011;5019;48.012;7.812;2023-03-15T07:53:07;6.30;;;2.73;;
9958;SDS011;5019;48.012;7.812;2023-03-15T07:55:33;3.90;;;2.87;;
9958;SDS011;5019;48.012;7.812;2023-03-15T07:57:59;1.80;;;1.70;;
9958;SDS011;5019;48.012;7.812;2023-03-15T08:00:25;4.87;;;2.77;;
9958;SDS011;5019;48.012;7.812;2023-03-15T08:02:51;2.13;;;1.80;;
9958;SDS011;5019;48.012;7.812;2023-03-15T08:05:17;3.33;;;2.03;;
9958;SDS011;5019;48.012;7.812;2023-03-15T08:07:44;2.97;;;2.20;;
9958;SDS011;5019;48.012;7.812;2023-03-15T08:10:10;2.27;;;2.00;;
9958;SDS011;5019;48.012;7.812;2023-03-15T08:12:37;2.40;;;2.20;;
9958;SDS011;5019;48.012;7.812;2023-03-15T08:15:04;1.70;;;1.60;;
9958;SDS011;5019;48.012;7.812;2023-03-15T08:17:31;1.70;;;1.60;;
9958;SDS011;5019;48.012;7.812;2023-03-15T08:19:57;1.93;;;1.80;;
9958;SDS011;5019;48.012;7.812;2023-03-15T08:22:23;1.40;;;1.30;;
9958;SDS011;5019;48.012;7.812;2023-03-15T08:24:49;2.20;;;1.70;;
9958;SDS011;5019;48.012;7.812;2023-03-15T08:27:17;4.07;;;2.00;;
9958;SDS011;5019;48.012;7.812;2023-03-15T08:29:43;1.87;;;1.70;;
9958;SDS011;5019;48.012;7.812;2023-03-15T08:32:09;2.87;;;2.03;;
9958;SDS011;5019;48.012;7.812;2023-03-15T08:34:35;2.03;;;1.93;;
9958;SDS011;5019;48.012;7.812;2023-03-15T08:37:01;1.80;;;1.53;;
9958;SDS011;5019;48.012;7.812;2023-03-15T08:39:27;1.93;;;1.73;;
9958;SDS011;5019;48.012;7.812;2023-03-15T08:41:53;1.80;;;1.40;;
9958;SDS011;5019;48.012;7.812;2023-03-15T08:44:19;1.50;;;1.40;;
9958;SDS011;5019;48.012;7.812;2023-03-15T08:46:45;1.30;;;1.30;;
9958;SDS011;5019;48.012;7.812;2023-03-15T08:49:11;1.77;;;1.20;;
9958;SDS011;5019;48.012;7.812;2023-03-15T08:51:37;0.90;;;0.90;;
9958;SDS011;5019;48.012;7.812;2023-03-15T08:54:03;1.97;;;1.00;;
9958;SDS011;5019;48.012;7.812;2023-03-15T08:56:29;1.53;;;1.43;;
9958;SDS011;5019;48.012;7.812;2023-03-15T08:58:56;2.77;;;1.60;;
9958;SDS011;5019;48.012;7.812;2023-03-15T09:01:22;2.43;;;1.23;;
9958;SDS011;5019;48.012;7.812;2023-03-15T09:03:48;1.70;;;1.60;;
9958;SDS011;5019;48.012;7.812;2023-03-15T09:06:15;3.50;;;1.80;;
9958;SDS011;5019;48.012;7.812;2023-03-15T09:08:41;2.90;;;1.20;;
9958;SDS011;5019;48.012;7.812;2023-03-15T09:11:07;1.20;;;1.20;;
9958;SDS011;5019;48.012;7.812;2023-03-15T09:13:33;2.03;;;1.70;;
9958;SDS011;5019;48.012;7.812;2023-03-15T09:15:59;5.13;;;1.50;;
9958;SDS011;5019;48.012;7.812;2023-03-15T09:18:26;1.07;;;1.00;;
9958;SDS011;5019;48.012;7.812;2023-03-15T09:20:52;1.10;;;1.10;;
9958;SDS011;5019;48.012;7.812;2023-03-15T09:23:18;1.67;;;1.57;;
9958;SDS011;5019;48.012;7.812;2023-03-15T09:25:44;1.37;;;1.10;;
9958;SDS011;5019;48.012;7.812;2023-03-15T09:28:10;1.13;;;1.13;;
9958;SDS011;5019;48.012;7.812;2023-03-15T09:30:37;1.53;;;1.20;;
9958;SDS011;5019;48.012;7.812;2023-03-15T09:33:03;1.40;;;1.30;;
9958;SDS011;5019;48.012;7.812;2023-03-15T09:35:29;2.17;;;1.07;;
9958;SDS011;5019;48.012;7.812;2023-03-15T09:37:55;0.90;;;0.90;;
9958;SDS011;5019;48.012;7.812;2023-03-15T09:40:32;1.13;;;1.10;;
9958;SDS011;5019;48.012;7.812;2023-03-15T09:43:00;1.03;;;1.00;;
9958;SDS011;5019;48.012;7.812;2023-03-15T09:45:39;0.90;;;0.90;;
9958;SDS011;5019;48.012;7.812;2023-03-15T09:50:45;0.93;;;0.90;;
9958;SDS011;5019;48.012;7.812;2023-03-15T09:53:18;1.10;;;1.00;;
9958;SDS011;5019;48.012;7.812;2023-03-15T09:55:46;1.10;;;1.00;;
9958;SDS011;5019;48.012;7.812;2023-03-15T09:58:15;1.67;;;1.47;;
9958;SDS011;5019;48.012;7.812;2023-03-15T10:03:20;1.00;;;1.00;;
9958;SDS011;5019;48.012;7.812;2023-03-15T10:05:51;1.20;;;1.10;;
9958;SDS011;5019;48.012;7.812;2023-03-15T10:08:18;7.80;;;2.03;;
9958;SDS011;5019;48.012;7.812;2023-03-15T10:11:08;2.60;;;1.10;;
9958;SDS011;5019;48.012;7.812;2023-03-15T10:13:40;1.30;;;1.07;;
9958;SDS011;5019;48.012;7.812;2023-03-15T10:16:14;1.10;;;1.10;;
9958;SDS011;5019;48.012;7.812;2023-03-15T10:21:21;2.80;;;1.20;;
9958;SDS011;5019;48.012;7.812;2023-03-15T10:23:52;3.43;;;1.20;;
9958;SDS011;5019;48.012;7.812;2023-03-15T10:26:24;1.40;;;1.30;;
9958;SDS011;5019;48.012;7.812;2023-03-15T10:28:52;4.33;;;1.57;;
9958;SDS011;5019;48.012;7.812;2023-03-15T10:31:20;1.53;;;1.20;;
9958;SDS011;5019;48.012;7.812;2023-03-15T10:33:47;1.80;;;1.27;;
9958;SDS011;5019;48.012;7.812;2023-03-15T10:36:15;2.03;;;1.20;;
9958;SDS011;5019;48.012;7.812;2023-03-15T10:38:42;4.30;;;1.60;;
9958;SDS011;5019;48.012;7.812;2023-03-15T10:41:09;1.50;;;1.40;;
9958;SDS011;5019;48.012;7.812;2023-03-15T10:43:36;1.63;;;1.53;;
9958;SDS011;5019;48.012;7.812;2023-03-15T10:51:23;1.57;;;1.27;;
9958;SDS011;5019;48.012;7.812;2023-03-15T10:53:54;1.03;;;1.03;;
9958;SDS011;5019;48.012;7.812;2023-03-15T10:56:22;2.47;;;1.00;;
9958;SDS011;5019;48.012;7.812;2023-03-15T10:58:51;1.60;;;1.50;;
9958;SDS011;5019;48.012;7.812;2023-03-15T11:01:22;3.67;;;1.30;;
9958;SDS011;5019;48.012;7.812;2023-03-15T11:04:06;0.80;;;0.80;;
9958;SDS011;5019;48.012;7.812;2023-03-15T11:07:19;4.20;;;1.27;;
9958;SDS011;5019;48.012;7.812;2023-03-15T11:09:21;0.80;;;0.80;;
9958;SDS011;5019;48.012;7.812;2023-03-15T11:12:00;1.30;;;1.23;;
9958;SDS011;5019;48.012;7.812;2023-03-15T11:14:37;3.90;;;1.10;;
9958;SDS011;5019;48.012;7.812;2023-03-15T11:17:05;0.87;;;0.87;;
9958;SDS011;5019;48.012;7.812;2023-03-15T11:19:33;1.03;;;1.03;;
9958;SDS011;5019;48.012;7.812;2023-03-15T11:22:01;2.30;;;0.93;;
9958;SDS011;5019;48.012;7.812;2023-03-15T11:24:28;1.00;;;1.00;;
9958;SDS011;5019;48.012;7.812;2023-03-15T11:26:55;0.90;;;0.90;;
9958;SDS011;5019;48.012;7.812;2023-03-15T11:29:29;1.30;;;1.20;;
9958;SDS011;5019;48.012;7.812;2023-03-15T11:31:57;1.37;;;1.10;;
9958;SDS011;5019;48.012;7.812;2023-03-15T11:37:12;1.03;;;1.00;;
9958;SDS011;5019;48.012;7.812;2023-03-15T11:39:42;1.43;;;0.87;;
9958;SDS011;5019;48.012;7.812;2023-03-15T11:42:12;0.90;;;0.90;;
9958;SDS011;5019;48.012;7.812;2023-03-15T11:44:44;1.53;;;0.90;;
9958;SDS011;5019;48.012;7.812;2023-03-15T11:47:15;1.63;;;1.00;;
9958;SDS011;5019;48.012;7.812;2023-03-15T11:49:49;1.57;;;1.40;;
9958;SDS011;5019;48.012;7.812;2023-03-15T11:52:16;1.07;;;0.80;;
9958;SDS011;5019;48.012;7.812;2023-03-15T11:54:43;0.70;;;0.70;;
9958;SDS011;5019;48.012;7.812;2023-03-15T12:00:13;1.33;;;0.97;;
9958;SDS011;5019;48.012;7.812;2023-03-15T12:02:47;0.90;;;0.90;;
9958;SDS011;5019;48.012;7.812;2023-03-15T12:07:59;1.17;;;1.00;;
9958;SDS011;5019;48.012;7.812;2023-03-15T12:10:44;1.83;;;0.93;;
9958;SDS011;5019;48.012;7.812;2023-03-15T12:13:18;2.60;;;1.53;;
9958;SDS011;5019;48.012;7.812;2023-03-15T12:15:44;1.30;;;1.10;;
9958;SDS011;5019;48.012;7.812;2023-03-15T12:18:12;0.70;;;0.70;;
9958;SDS011;5019;48.012;7.812;2023-03-15T12:20:48;0.80;;;0.80;;
9958;SDS011;5019;48.012;7.812;2023-03-15T12:25:51;0.83;;;0.80;;
9958;SDS011;5019;48.012;7.812;2023-03-15T12:28:19;0.93;;;0.93;;
9958;SDS011;5019;48.012;7.812;2023-03-15T12:30:46;0.80;;;0.80;;
9958;SDS011;5019;48.012;7.812;2023-03-15T12:33:17;1.77;;;1.03;;
9958;SDS011;5019;48.012;7.812;2023-03-15T12:35:44;1.10;;;1.10;;
9958;SDS011;5019;48.012;7.812;2023-03-15T12:38:19;1.00;;;1.00;;
9958;SDS011;5019;48.012;7.812;2023-03-15T12:40:51;1.10;;;1.00;;
9958;SDS011;5019;48.012;7.812;2023-03-15T12:43:33;0.80;;;0.80;;
9958;SDS011;5019;48.012;7.812;2023-03-15T12:45:59;0.73;;;0.73;;
9958;SDS011;5019;48.012;7.812;2023-03-15T12:48:26;0.70;;;0.70;;
9958;SDS011;5019;48.012;7.812;2023-03-15T12:50:57;0.90;;;0.90;;
9958;SDS011;5019;48.012;7.812;2023-03-15T12:55:52;2.70;;;0.87;;
9958;SDS011;5019;48.012;7.812;2023-03-15T12:58:19;0.87;;;0.80;;
9958;SDS011;5019;48.012;7.812;2023-03-15T13:00:46;1.17;;;1.03;;
9958;SDS011;5019;48.012;7.812;2023-03-15T13:03:32;0.80;;;0.80;;
9958;SDS011;5019;48.012;7.812;2023-03-15T13:08:29;0.97;;;0.87;;
9958;SDS011;5019;48.012;7.812;2023-03-15T13:16:02;1.20;;;1.03;;
9958;SDS011;5019;48.012;7.812;2023-03-15T13:18:32;1.00;;;1.00;;
9958;SDS011;5019;48.012;7.812;2023-03-15T13:23:26;1.13;;;0.90;;
9958;SDS011;5019;48.012;7.812;2023-03-15T13:31:40;1.53;;;1.37;;
9958;SDS011;5019;48.012;7.812;2023-03-15T13:34:10;0.90;;;0.90;;
9958;SDS011;5019;48.012;7.812;2023-03-15T13:36:41;1.03;;;1.00;;
9958;SDS011;5019;48.012;7.812;2023-03-15T13:39:09;1.90;;;0.87;;
9958;SDS011;5019;48.012;7.812;2023-03-15T13:41:37;0.83;;;0.80;;
9958;SDS011;5019;48.012;7.812;2023-03-15T13:44:04;2.53;;;1.40;;
9958;SDS011;5019;48.012;7.812;2023-03-15T13:46:36;0.80;;;0.80;;
9958;SDS011;5019;48.012;7.812;2023-03-15T13:49:02;1.03;;;0.70;;
9958;SDS011;5019;48.012;7.812;2023-03-15T13:53:56;0.73;;;0.73;;
9958;SDS011;5019;48.012;7.812;2023-03-15T13:56:30;1.00;;;1.00;;
9958;SDS011;5019;48.012;7.812;2023-03-15T13:58:56;1.47;;;0.90;;
9958;SDS011;5019;48.012;7.812;2023-03-15T14:01:23;1.90;;;1.00;;
9958;SDS011;5019;48.012;7.812;2023-03-15T14:03:57;1.80;;;0.70;;
9958;SDS011;5019;48.012;7.812;2023-03-15T14:06:26;0.80;;;0.80;;
9958;SDS011;5019;48.012;7.812;2023-03-15T14:08:53;2.77;;;0.80;;
9958;SDS011;5019;48.012;7.812;2023-03-15T14:16:28;1.50;;;0.83;;
9958;SDS011;5019;48.012;7.812;2023-03-15T14:19:06;0.60;;;0.60;;
9958;SDS011;5019;48.012;7.812;2023-03-15T14:21:32;0.70;;;0.70;;
9958;SDS011;5019;48.012;7.812;2023-03-15T14:23:58;0.73;;;0.73;;
9958;SDS011;5019;48.012;7.812;2023-03-15T14:26:30;0.80;;;0.80;;
9958;SDS011;5019;48.012;7.812;2023-03-15T14:28:57;2.97;;;0.93;;
9958;SDS011;5019;48.012;7.812;2023-03-15T14:31:27;1.37;;;1.27;;
9958;SDS011;5019;48.012;7.812;2023-03-15T14:33:56;1.20;;;0.90;;
9958;SDS011;5019;48.012;7.812;2023-03-15T14:36:29;0.70;;;0.70;;
9958;SDS011;5019;48.012;7.812;2023-03-15T14:38:56;1.20;;;1.10;;
9958;SDS011;5019;48.012;7.812;2023-03-15T14:43:52;1.33;;;0.80;;
9958;SDS011;5019;48.012;7.812;2023-03-15T14:46:18;0.63;;;0.63;;
9958;SDS011;5019;48.012;7.812;2023-03-15T14:48:44;0.73;;;0.73;;
9958;SDS011;5019;48.012;7.812;2023-03-15T14:51:15;1.20;;;0.90;;
9958;SDS011;5019;48.012;7.812;2023-03-15T14:53:42;1.33;;;0.90;;
9958;SDS011;5019;48.012;7.812;2023-03-15T14:56:12;0.70;;;0.70;;
9958;SDS011;5019;48.012;7.812;2023-03-15T14:58:38;0.83;;;0.70;;
9958;SDS011;5019;48.012;7.812;2023-03-15T15:01:05;1.33;;;1.03;;
9958;SDS011;5019;48.012;7.812;2023-03-15T15:03:35;0.60;;;0.60;;
9958;SDS011;5019;48.012;7.812;2023-03-15T15:06:03;0.70;;;0.70;;
9958;SDS011;5019;48.012;7.812;2023-03-15T15:08:30;1.00;;;0.70;;
9958;SDS011;5019;48.012;7.812;2023-03-15T15:10:57;1.10;;;0.83;;
9958;SDS011;5019;48.012;7.812;2023-03-15T15:13:24;2.00;;;1.03;;
9958;SDS011;5019;48.012;7.812;2023-03-15T15:15:51;0.60;;;0.60;;
9958;SDS011;5019;48.012;7.812;2023-03-15T15:18:17;0.93;;;0.87;;
9958;SDS011;5019;48.012;7.812;2023-03-15T15:20:43;0.80;;;0.80;;
9958;SDS011;5019;48.012;7.812;2023-03-15T15:23:29;0.70;;;0.70;;
9958;SDS011;5019;48.012;7.812;2023-03-15T15:25:59;1.33;;;0.90;;
9958;SDS011;5019;48.012;7.812;2023-03-15T15:28:25;0.60;;;0.60;;
9958;SDS011;5019;48.012;7.812;2023-03-15T15:30:52;1.83;;;1.00;;
9958;SDS011;5019;48.012;7.812;2023-03-15T15:33:18;0.80;;;0.80;;
9958;SDS011;5019;48.012;7.812;2023-03-15T15:35:44;0.70;;;0.70;;
9958;SDS011;5019;48.012;7.812;2023-03-15T15:38:10;0.70;;;0.70;;
9958;SDS011;5019;48.012;7.812;2023-03-15T15:40:37;1.23;;;0.70;;
9958;SDS011;5019;48.012;7.812;2023-03-15T15:43:03;0.73;;;0.73;;
9958;SDS011;5019;48.012;7.812;2023-03-15T15:45:29;0.87;;;0.87;;
9958;SDS011;5019;48.012;7.812;2023-03-15T15:47:58;0.93;;;0.83;;
9958;SDS011;5019;48.012;7.812;2023-03-15T15:50:29;1.03;;;0.77;;
9958;SDS011;5019;48.012;7.812;2023-03-15T15:52:56;0.93;;;0.93;;
9958;SDS011;5019;48.012;7.812;2023-03-15T15:55:23;0.70;;;0.70;;
9958;SDS011;5019;48.012;7.812;2023-03-15T15:57:51;2.00;;;0.93;;
9958;SDS011;5019;48.012;7.812;2023-03-15T16:00:19;1.00;;;0.77;;
9958;SDS011;5019;48.012;7.812;2023-03-15T16:02:47;1.23;;;1.13;;
9958;SDS011;5019;48.012;7.812;2023-03-15T16:05:13;0.70;;;0.70;;
9958;SDS011;5019;48.012;7.812;2023-03-15T16:07:40;0.70;;;0.70;;
9958;SDS011;5019;48.012;7.812;2023-03-15T16:10:07;0.93;;;0.80;;
9958;SDS011;5019;48.012;7.812;2023-03-15T16:12:33;0.70;;;0.70;;
9958;SDS011;5019;48.012;7.812;2023-03-15T16:14:59;2.50;;;1.00;;
9958;SDS011;5019;48.012;7.812;2023-03-15T16:17:25;0.73;;;0.73;;